Webb, Canada
Current Conditions -  °F | °C
As of 10:00 PM on Thursday 18 Dec 2014 (Local Time) from CYYN Reporting Station
Broken Clouds Broken Clouds  
Wind Chill: 11°   Ceiling: 13000
Heat Index: 21°   Visibility: 9mi
Dew Point: 19°   Wind: 9mph
Humidity: 93%   Direction: 260°W
Pressure: 29.84"   Gusts: NA
Location:  50.18°N, 108.2°W
Report Text: CYYN 190400Z AUTO 26008KT 9SM BKN130 M06/M07 A2984 RMK TS/LTNG TEMPO UNAVBL SLP147
Loading
Personal Weather Stations






























Interactive Weather Map New forecast layout! Learn more

10-Day Weather Forecast

Advertisements
Track Severe Weather on mobile